メインページ
METAR-TAF:

METAR-TAF

空港 :

チューレ空軍基地

トゥーレ, グリーンランド

緯度: 76-32N, 経度: 068-42W, 海抜: 77m

現時点の気象観測

当レポートは55分前の06:56(UTC)に作成
の風 13kt
気温 5°C
湿度 81%
気圧
視程10km以上
高度10000ftの雲はほとんどない

METAR: BGTL 190656Z AUTO 17013KT 9999 FEW100 05/02 M RMK AO2 SLPNO T00470021 TSNO $

時間: 04:51 (07:51 UTC)

予報

当レポートは6時間51分前の01:00(UTC)に作成
予報は19日の 01時(UTC)から 20日の 07時(UTC)まで有効
西/北西の風 6kt
視程10km以上
高度15000ftの雲はほとんどない
19日の 19時(UTC)から 19日の 20時(UTC)まで徐々に
西の風 6kt
視程: 1909m
高度4000ftの雲は散在している
高度6000ftの千切れ雲あり

TAF: BGTL 190100Z 1901/2007 29006KT 9999 FEW150 QNH2974INS BECMG 1919/1920 27006KT 9999 SCT040 BKN060 620604 QNH2957INS TX08/1903Z TN04/1914Z LAST NO AMDS AFT 1901 NEXT 1909

4,000以上の空港の気象観測と天気予報(METAR報とTAF報)

利用可能な観測所は地図上に黄色い丸と赤い丸で示す。

丸の上にカーソルを重ねると観測所名を参照できる。

次にクリックすると気象観測と天気予報を参照できる。

マップの切り替え:黒色「×」印の緑ボタンをクリックして拡大、「-」印の緑ボタンをクリックして縮小、緑色の三角印をクリックして隣りの地図に切り替え


METAR-TAF: